createdAt,value
2018-12-22T00:00:19.068Z,24.37
2018-12-22T00:02:53.986Z,27.47
2018-12-22T00:05:24.448Z,21.80
2018-12-22T00:07:54.232Z,23.07
2018-12-22T00:10:26.907Z,25.63
2018-12-22T00:12:57.031Z,24.60
2018-12-22T00:15:26.847Z,22.83
2018-12-22T00:17:59.363Z,24.27
2018-12-22T00:20:29.358Z,23.90
2018-12-22T00:23:01.835Z,23.20
2018-12-22T00:25:34.727Z,20.37
2018-12-22T00:28:09.314Z,23.87
2018-12-22T00:30:39.155Z,27.17
2018-12-22T00:33:18.733Z,24.03
2018-12-22T00:35:49.712Z,22.07
2018-12-22T00:38:20.859Z,25.33
2018-12-22T00:40:55.475Z,23.87
2018-12-22T00:43:29.698Z,22.57
2018-12-22T00:45:59.531Z,25.23
2018-12-22T00:48:29.417Z,27.60
2018-12-22T00:50:59.398Z,22.43
2018-12-22T00:53:33.997Z,25.03
2018-12-22T00:56:10.581Z,22.57
2018-12-22T00:58:41.215Z,26.57
2018-12-22T01:01:13.838Z,24.07
2018-12-22T01:03:44.197Z,22.30
2018-12-22T01:06:17.926Z,22.80
2018-12-22T01:08:50.781Z,21.67
2018-12-22T01:11:21.085Z,21.17
2018-12-22T01:13:53.638Z,24.53
2018-12-22T01:16:24.319Z,25.13
2018-12-22T01:18:57.642Z,26.47
2018-12-22T01:21:31.268Z,21.73
2018-12-22T01:24:01.528Z,19.47
2018-12-22T01:26:31.246Z,23.40
2018-12-22T01:29:01.274Z,24.10
2018-12-22T01:31:31.210Z,23.37
2018-12-22T01:34:04.799Z,20.63
2018-12-22T01:36:34.918Z,19.67
2018-12-22T01:39:05.583Z,25.70
2018-12-22T01:41:39.865Z,22.23
2018-12-22T01:44:14.502Z,20.93
2018-12-22T01:46:47.276Z,18.40
2018-12-22T01:49:26.582Z,20.70
2018-12-22T01:51:57.783Z,25.37
2018-12-22T01:54:32.111Z,25.13
2018-12-22T01:57:05.880Z,21.10
2018-12-22T01:59:37.219Z,17.57
2018-12-22T02:02:07.449Z,17.67
2018-12-22T02:04:40.036Z,21.63
2018-12-22T02:07:10.204Z,17.47
2018-12-22T02:09:40.405Z,17.53
2018-12-22T02:12:15.170Z,19.00
2018-12-22T02:14:45.007Z,18.13
2018-12-22T02:17:17.537Z,17.53
2018-12-22T02:19:51.289Z,15.60
2018-12-22T02:22:25.543Z,17.53
2018-12-22T02:24:56.278Z,15.77
2018-12-22T02:27:29.141Z,16.63
2018-12-22T02:29:59.418Z,14.00
2018-12-22T02:32:32.175Z,17.90
2018-12-22T02:35:09.665Z,14.67
2018-12-22T02:37:40.155Z,16.20
2018-12-22T02:40:13.247Z,15.00
2018-12-22T02:42:47.596Z,15.40
2018-12-22T02:45:18.499Z,15.17
2018-12-22T02:47:48.223Z,16.50
2018-12-22T02:50:23.677Z,15.87
2018-12-22T02:52:53.703Z,16.53
2018-12-22T02:55:27.563Z,18.87
2018-12-22T02:57:57.654Z,22.03
2018-12-22T03:00:27.601Z,20.67
2018-12-22T03:03:00.314Z,20.27
2018-12-22T03:05:35.932Z,21.87
2018-12-22T03:08:06.453Z,20.33
2018-12-22T03:10:44.084Z,22.50
2018-12-22T03:13:14.850Z,19.93
2018-12-22T03:15:43.281Z,21.10
2018-12-22T03:18:15.878Z,20.60
2018-12-22T03:20:50.400Z,20.40
2018-12-22T03:23:21.058Z,22.77
2018-12-22T03:25:50.743Z,21.03
2018-12-22T03:28:21.284Z,20.00
2018-12-22T03:30:51.739Z,17.90
2018-12-22T03:33:21.957Z,20.23
2018-12-22T03:35:52.571Z,18.27
2018-12-22T03:38:26.259Z,18.67
2018-12-22T03:40:56.556Z,17.80
2018-12-22T03:43:27.084Z,15.00
2018-12-22T03:45:55.286Z,17.57
2018-12-22T03:48:25.353Z,15.60
2018-12-22T03:50:57.964Z,17.43
2018-12-22T03:53:28.166Z,15.83
2018-12-22T03:56:00.740Z,17.70
2018-12-22T03:58:33.565Z,15.03
2018-12-22T04:01:08.020Z,13.97
2018-12-22T04:03:38.687Z,13.00
2018-12-22T04:06:11.292Z,17.20
2018-12-22T04:08:48.951Z,12.93
2018-12-22T04:11:19.296Z,13.33
2018-12-22T04:13:53.831Z,14.97
2018-12-22T04:16:28.173Z,14.37
2018-12-22T04:19:01.088Z,14.87
2018-12-22T04:21:31.395Z,12.73
2018-12-22T04:24:02.113Z,14.03
2018-12-22T04:26:32.035Z,15.13
2018-12-22T04:29:01.784Z,13.23
2018-12-22T04:31:34.379Z,14.27
2018-12-22T04:34:08.199Z,14.30
2018-12-22T04:36:41.065Z,15.07
2018-12-22T04:39:11.619Z,13.03
2018-12-22T04:41:44.779Z,14.90
2018-12-22T04:44:17.884Z,12.20
2018-12-22T04:46:50.757Z,13.03
2018-12-22T04:49:23.520Z,15.87
2018-12-22T04:51:57.763Z,14.27
2018-12-22T04:54:35.255Z,14.40
2018-12-22T04:57:12.200Z,13.30
2018-12-22T04:59:45.303Z,12.87
2018-12-22T05:02:15.653Z,12.23
2018-12-22T05:04:49.132Z,15.43
2018-12-22T05:07:25.741Z,12.67
2018-12-22T05:09:56.331Z,13.77
2018-12-22T05:12:30.166Z,13.93
2018-12-22T05:15:01.336Z,12.93
2018-12-22T05:17:31.483Z,13.77
2018-12-22T05:20:04.002Z,12.57
2018-12-22T05:22:35.218Z,14.43
2018-12-22T05:25:05.623Z,17.33
2018-12-22T05:27:36.298Z,16.60
2018-12-22T05:30:07.244Z,14.87
2018-12-22T05:32:35.930Z,14.90
2018-12-22T05:35:05.932Z,10.40
2018-12-22T05:37:35.847Z,15.43
2018-12-22T05:40:08.770Z,13.80
2018-12-22T05:42:41.697Z,12.27
2018-12-22T05:45:11.905Z,11.97
2018-12-22T05:47:42.411Z,12.40
2018-12-22T05:50:15.294Z,10.77
2018-12-22T05:52:49.303Z,12.40
2018-12-22T05:55:26.073Z,17.57
2018-12-22T05:57:56.555Z,14.23
2018-12-22T06:00:29.211Z,12.83
2018-12-22T06:03:03.126Z,13.00
2018-12-22T06:05:37.890Z,15.00
2018-12-22T06:08:10.927Z,12.90
2018-12-22T06:10:41.140Z,16.10
2018-12-22T06:13:15.452Z,13.97
2018-12-22T06:15:50.239Z,12.87
2018-12-22T06:18:20.543Z,14.70
2018-12-22T06:20:55.388Z,13.33
2018-12-22T06:23:28.001Z,15.13
2018-12-22T06:25:58.298Z,12.83
2018-12-22T06:28:31.851Z,12.50
2018-12-22T06:31:01.981Z,14.43
2018-12-22T06:33:32.500Z,13.90
2018-12-22T06:36:03.174Z,13.53
2018-12-22T06:38:33.876Z,15.47
2018-12-22T06:41:06.661Z,14.93
2018-12-22T06:43:39.228Z,13.33
2018-12-22T06:46:11.931Z,13.83
2018-12-22T06:48:45.584Z,14.17
2018-12-22T06:53:52.405Z,13.27
2018-12-22T06:56:29.043Z,12.77
2018-12-22T06:59:01.857Z,14.23
2018-12-22T07:01:34.392Z,12.87
2018-12-22T07:04:02.906Z,14.23
2018-12-22T07:06:33.527Z,14.27
2018-12-22T07:09:04.792Z,14.00
2018-12-22T07:11:35.416Z,13.13
2018-12-22T07:14:08.261Z,14.17
2018-12-22T07:16:38.188Z,14.47
2018-12-22T07:19:08.348Z,15.93
2018-12-22T07:21:40.992Z,18.73
2018-12-22T07:24:14.924Z,20.33
2018-12-22T07:26:48.790Z,18.37
2018-12-22T07:29:22.828Z,15.13
2018-12-22T07:31:55.689Z,16.97
2018-12-22T07:34:28.459Z,14.00
2018-12-22T07:37:01.903Z,15.30
2018-12-22T07:39:35.910Z,16.60
2018-12-22T07:42:12.476Z,25.07
2018-12-22T07:44:44.192Z,18.23
2018-12-22T07:47:14.878Z,17.60
2018-12-22T07:49:47.626Z,19.83
2018-12-22T07:52:17.460Z,20.63
2018-12-22T07:54:50.154Z,18.47
2018-12-22T07:57:23.134Z,21.20
2018-12-22T07:59:55.960Z,20.13
2018-12-22T08:02:29.764Z,22.27
2018-12-22T08:04:59.953Z,19.07
2018-12-22T08:07:32.528Z,17.57
2018-12-22T08:10:05.293Z,19.57
2018-12-22T08:12:43.875Z,18.27
2018-12-22T08:15:16.930Z,17.00
2018-12-22T08:17:46.944Z,15.97
2018-12-22T08:20:17.688Z,16.30
2018-12-22T08:22:47.423Z,15.93
2018-12-22T08:25:18.183Z,13.67
2018-12-22T08:27:47.940Z,15.10
2018-12-22T08:30:18.169Z,17.50
2018-12-22T08:32:51.776Z,15.40
2018-12-22T08:35:22.007Z,18.87
2018-12-22T08:37:52.028Z,17.67
2018-12-22T08:40:24.732Z,18.00
2018-12-22T08:42:58.010Z,17.43
2018-12-22T08:45:28.775Z,14.80
2018-12-22T08:48:02.094Z,12.07
2018-12-22T08:50:30.275Z,13.87
2018-12-22T08:53:00.191Z,13.87
2018-12-22T08:55:33.834Z,13.90
2018-12-22T08:58:08.011Z,16.43
2018-12-22T09:00:51.948Z,17.93
2018-12-22T09:03:20.791Z,16.77
2018-12-22T09:05:54.447Z,17.03
2018-12-22T09:08:23.405Z,17.83
2018-12-22T09:10:53.274Z,20.00
2018-12-22T09:13:25.949Z,17.03
2018-12-22T09:16:02.933Z,18.60
2018-12-22T09:18:32.798Z,14.70
2018-12-22T09:21:02.556Z,25.50
2018-12-22T09:23:32.569Z,22.40
2018-12-22T09:26:09.303Z,17.17
2018-12-22T09:28:39.773Z,16.67
2018-12-22T09:31:16.327Z,19.50
2018-12-22T09:33:53.475Z,15.30
2018-12-22T09:36:23.341Z,26.87
2018-12-22T09:38:53.544Z,21.57
2018-12-22T09:41:24.351Z,18.20
2018-12-22T09:44:01.430Z,18.47
2018-12-22T09:46:32.116Z,19.57
2018-12-22T09:49:05.923Z,13.90
2018-12-22T09:51:36.661Z,16.93
2018-12-22T09:54:16.682Z,16.37
2018-12-22T09:56:49.377Z,14.77
2018-12-22T09:59:22.125Z,14.93
2018-12-22T10:01:55.810Z,15.23
2018-12-22T10:04:30.484Z,15.20
2018-12-22T10:16:41.249Z,16.20
2018-12-22T10:19:13.903Z,16.73
2018-12-22T10:21:45.159Z,18.73
2018-12-22T10:24:18.550Z,15.77
2018-12-22T10:26:49.264Z,16.17
2018-12-22T10:29:19.563Z,16.97
2018-12-22T10:31:49.487Z,18.97
2018-12-22T10:34:22.170Z,17.00
2018-12-22T10:36:54.857Z,16.23
2018-12-22T10:39:24.796Z,19.53
2018-12-22T10:42:03.453Z,19.17
2018-12-22T10:44:37.247Z,19.73
2018-12-22T10:47:11.253Z,23.90
2018-12-22T10:49:46.118Z,17.83
2018-12-22T10:52:21.068Z,19.87
2018-12-22T10:54:54.901Z,18.30
2018-12-22T10:57:35.207Z,20.00
2018-12-22T11:00:07.835Z,18.27
2018-12-22T11:02:36.038Z,19.67
2018-12-22T11:05:08.641Z,18.47
2018-12-22T11:07:45.495Z,14.60
2018-12-22T11:10:18.309Z,16.43
2018-12-22T11:12:52.347Z,14.20
2018-12-22T11:15:26.131Z,13.77
2018-12-22T11:17:58.975Z,13.70
2018-12-22T11:20:32.448Z,16.10
2018-12-22T11:23:02.877Z,13.70
2018-12-22T11:25:35.637Z,17.37
2018-12-22T11:28:06.026Z,18.03
2018-12-22T11:30:38.707Z,18.80
2018-12-22T11:33:12.368Z,18.13
2018-12-22T11:35:43.534Z,20.00
2018-12-22T11:38:16.245Z,17.17
2018-12-22T11:40:46.740Z,19.37
2018-12-22T11:43:16.976Z,19.40
2018-12-22T11:45:50.278Z,21.23
2018-12-22T11:48:24.135Z,17.07
2018-12-22T11:50:57.020Z,16.13
2018-12-22T11:53:30.598Z,21.40
2018-12-22T11:56:03.567Z,17.40
2018-12-22T11:58:38.314Z,21.50
2018-12-22T12:01:17.991Z,17.53
2018-12-22T12:03:50.972Z,15.80
2018-12-22T12:12:13.374Z,14.40
2018-12-22T12:23:31.879Z,15.73
2018-12-22T12:26:03.093Z,19.33
2018-12-22T12:34:29.281Z,18.17
2018-12-22T12:40:03.735Z,16.57
2018-12-22T12:42:36.215Z,17.53
2018-12-22T12:45:08.577Z,16.07
2018-12-22T12:48:00.877Z,17.67
2018-12-22T12:50:31.773Z,21.57
2018-12-22T12:53:09.650Z,17.37
2018-12-22T12:55:42.302Z,18.70
2018-12-22T12:58:12.483Z,18.10
2018-12-22T13:00:42.346Z,16.23
2018-12-22T13:03:31.072Z,19.30
2018-12-22T13:06:06.158Z,18.33
2018-12-22T13:08:34.746Z,19.30
2018-12-22T13:11:04.947Z,18.87
2018-12-22T13:13:37.864Z,18.67
2018-12-22T13:16:10.473Z,19.70
2018-12-22T13:18:40.584Z,14.53
2018-12-22T13:21:22.020Z,18.37
2018-12-22T13:23:55.081Z,17.47
2018-12-22T13:26:25.477Z,17.60
2018-12-22T13:28:59.926Z,17.87
2018-12-22T13:31:30.043Z,16.73
2018-12-22T13:34:05.086Z,17.87
2018-12-22T13:36:40.091Z,24.10
2018-12-22T13:39:23.576Z,21.37
2018-12-22T13:41:57.934Z,20.03
2018-12-22T13:44:31.900Z,24.53
2018-12-22T13:47:07.450Z,20.73
2018-12-22T13:52:23.909Z,23.07
2018-12-22T13:54:55.168Z,24.10
2018-12-22T13:57:32.546Z,23.40
2018-12-22T14:00:16.122Z,21.53
2018-12-22T14:02:50.951Z,19.97
2018-12-22T14:05:28.010Z,24.80
2018-12-22T14:08:05.386Z,23.63
2018-12-22T14:10:41.996Z,25.13
2018-12-22T14:13:15.467Z,23.13
2018-12-22T14:15:46.597Z,22.17
2018-12-22T14:18:19.858Z,23.03
2018-12-22T14:20:50.168Z,24.27
2018-12-22T14:23:22.900Z,19.70
2018-12-22T14:25:53.170Z,28.17
2018-12-22T14:28:24.032Z,24.10
2018-12-22T14:30:56.488Z,24.67
2018-12-22T14:33:30.704Z,27.87
2018-12-22T14:36:00.690Z,23.73
2018-12-22T14:38:30.441Z,24.73
2018-12-22T14:41:05.148Z,23.33
2018-12-22T14:43:35.510Z,25.80
2018-12-22T14:46:08.151Z,23.60
2018-12-22T14:48:38.275Z,25.43
2018-12-22T14:51:08.380Z,26.50
2018-12-22T14:53:38.199Z,29.33
2018-12-22T14:56:08.192Z,31.37
2018-12-22T14:58:44.826Z,28.70
2018-12-22T15:01:18.620Z,35.63
2018-12-22T15:03:55.369Z,29.20
2018-12-22T15:06:25.716Z,31.90
2018-12-22T15:09:00.900Z,29.87
2018-12-22T15:11:33.530Z,28.93
2018-12-22T15:14:10.058Z,29.50
2018-12-22T15:16:40.704Z,30.20
2018-12-22T15:19:10.707Z,35.17
2018-12-22T15:21:44.234Z,32.70
2018-12-22T15:24:14.218Z,35.10
2018-12-22T15:26:46.803Z,33.67
2018-12-22T15:29:15.029Z,34.37
2018-12-22T15:31:43.810Z,23.80
2018-12-22T15:34:17.387Z,27.80
2018-12-22T15:36:54.058Z,23.20
2018-12-22T15:39:27.065Z,23.67
2018-12-22T15:41:57.084Z,20.93
2018-12-22T15:44:29.880Z,18.17
2018-12-22T15:47:01.109Z,22.63
2018-12-22T15:49:33.592Z,12.97
2018-12-22T15:52:06.718Z,16.07
2018-12-22T15:54:39.551Z,25.93
2018-12-22T15:57:13.386Z,25.13
2018-12-22T15:59:43.838Z,30.23
2018-12-22T16:02:13.720Z,22.40
2018-12-22T16:04:43.599Z,31.67
2018-12-22T16:07:18.254Z,24.43
2018-12-22T16:09:52.331Z,22.17
2018-12-22T16:12:25.138Z,23.67
2018-12-22T16:14:59.913Z,24.27
2018-12-22T16:17:29.986Z,28.90
2018-12-22T16:20:00.288Z,22.00
2018-12-22T16:22:32.811Z,26.70
2018-12-22T16:25:11.349Z,31.37
2018-12-22T16:27:44.577Z,29.73
2018-12-22T16:30:17.277Z,27.07
2018-12-22T16:32:52.365Z,28.87
2018-12-22T16:35:27.032Z,28.33
2018-12-22T16:37:57.543Z,36.13
2018-12-22T16:40:31.049Z,34.30
2018-12-22T16:43:02.196Z,24.07
2018-12-22T16:45:32.093Z,20.27
2018-12-22T16:48:06.155Z,34.53
2018-12-22T16:50:39.949Z,31.87
2018-12-22T17:02:52.540Z,20.93
2018-12-22T17:05:25.282Z,20.57
2018-12-22T17:07:59.687Z,27.23
2018-12-22T17:10:30.395Z,22.37
2018-12-22T17:13:11.927Z,14.77
2018-12-22T17:15:44.414Z,22.27
2018-12-22T17:18:18.425Z,21.03
2018-12-22T17:20:51.223Z,20.40
2018-12-22T17:23:25.211Z,16.80
2018-12-22T17:25:56.682Z,17.67
2018-12-22T17:28:28.453Z,31.50
2018-12-22T17:30:59.758Z,26.70
2018-12-22T17:33:29.843Z,16.60
2018-12-22T17:36:03.915Z,6.03
2018-12-22T17:38:34.401Z,10.67
2018-12-22T17:41:06.897Z,6.93
2018-12-22T17:43:37.450Z,10.00
2018-12-22T17:46:08.073Z,14.83
2018-12-22T17:48:41.508Z,9.17
2018-12-22T17:51:11.635Z,7.27
2018-12-22T17:53:44.097Z,16.17
2018-12-22T17:56:15.120Z,27.67
2018-12-22T17:58:45.166Z,20.90
2018-12-22T18:01:18.761Z,21.03
2018-12-22T18:03:49.228Z,18.53
2018-12-22T18:06:19.066Z,19.97
2018-12-22T18:08:57.889Z,20.63
2018-12-22T18:11:27.956Z,20.73
2018-12-22T18:14:00.698Z,17.57
2018-12-22T18:16:30.814Z,17.10
2018-12-22T18:19:04.436Z,12.53
2018-12-22T18:21:34.328Z,15.30
2018-12-22T18:24:04.362Z,13.10
2018-12-22T18:26:38.402Z,11.83
2018-12-22T18:29:12.900Z,12.93
2018-12-22T18:31:46.182Z,13.73
2018-12-22T18:34:16.248Z,10.30
2018-12-22T18:36:48.744Z,12.00
2018-12-22T18:39:18.827Z,15.77
2018-12-22T18:41:51.486Z,13.57
2018-12-22T18:44:25.318Z,13.53
2018-12-22T18:46:55.706Z,22.30
2018-12-22T18:49:29.206Z,26.00
2018-12-22T18:51:59.471Z,33.43
2018-12-22T18:54:29.401Z,41.30
2018-12-22T18:56:59.203Z,21.60
2018-12-22T18:59:35.905Z,34.70
2018-12-22T19:02:09.690Z,19.97
2018-12-22T19:04:44.617Z,19.73
2018-12-22T19:07:17.404Z,35.70
2018-12-22T19:09:47.832Z,24.70
2018-12-22T19:12:18.218Z,20.33
2018-12-22T19:14:51.826Z,19.70
2018-12-22T19:17:31.012Z,12.50
2018-12-22T19:20:01.649Z,16.43
2018-12-22T19:22:34.357Z,11.13
2018-12-22T19:25:08.634Z,11.70
2018-12-22T19:27:37.292Z,8.77
2018-12-22T19:30:07.845Z,8.00
2018-12-22T19:32:40.738Z,6.87
2018-12-22T19:35:13.471Z,9.33
2018-12-22T19:37:48.239Z,9.60
2018-12-22T19:40:27.773Z,10.30
2018-12-22T19:43:00.351Z,12.57
2018-12-22T19:45:30.910Z,15.43
2018-12-22T19:48:08.253Z,31.13
2018-12-22T19:50:38.720Z,32.03
2018-12-22T19:53:11.484Z,17.23
2018-12-22T19:55:44.222Z,19.17
2018-12-22T19:58:14.582Z,18.83
2018-12-22T20:00:47.220Z,25.90
2018-12-22T20:03:18.326Z,18.90
2018-12-22T20:05:51.326Z,22.23
2018-12-22T20:08:27.883Z,19.00
2018-12-22T20:10:58.370Z,14.63
2018-12-22T20:13:29.418Z,22.27
2018-12-22T20:16:08.820Z,19.50
2018-12-22T20:18:36.263Z,20.77
2018-12-22T20:21:06.828Z,24.67
2018-12-22T20:23:37.535Z,23.43
2018-12-22T20:26:11.006Z,22.77
2018-12-22T20:41:31.068Z,22.57
2018-12-22T20:44:01.056Z,24.37
2018-12-22T20:46:32.398Z,24.63
2018-12-22T20:49:02.518Z,21.50
2018-12-22T20:51:35.433Z,20.50
2018-12-22T20:54:05.452Z,15.33
2018-12-22T20:56:39.231Z,16.13
2018-12-22T20:59:07.832Z,14.20
2018-12-22T21:01:42.216Z,13.70
2018-12-22T21:04:19.806Z,16.67
2018-12-22T21:06:52.096Z,22.37
2018-12-22T21:09:30.040Z,24.37
2018-12-22T21:12:04.444Z,20.40
2018-12-22T21:14:34.465Z,21.20
2018-12-22T21:17:07.195Z,18.93
2018-12-22T21:19:37.493Z,19.23
2018-12-22T21:22:09.290Z,21.27
2018-12-22T21:24:42.132Z,21.27
2018-12-22T21:27:16.472Z,19.23
2018-12-22T21:29:50.185Z,22.03
2018-12-22T21:32:23.218Z,18.10
2018-12-22T21:34:53.323Z,25.20
2018-12-22T21:37:23.240Z,22.53
2018-12-22T21:39:53.344Z,38.37
2018-12-22T21:42:25.811Z,28.00
2018-12-22T21:44:59.749Z,14.23
2018-12-22T21:47:29.791Z,12.53
2018-12-22T21:49:59.886Z,11.63
2018-12-22T21:57:29.965Z,16.47
2018-12-22T22:00:02.888Z,21.33
2018-12-22T22:02:36.983Z,26.53
2018-12-22T22:05:06.725Z,24.13
2018-12-22T22:07:37.119Z,25.40
2018-12-22T22:10:07.673Z,27.87
2018-12-22T22:12:43.801Z,28.93
2018-12-22T22:15:17.349Z,33.83
2018-12-22T22:17:48.018Z,35.23
2018-12-22T22:20:28.984Z,37.53
2018-12-22T22:23:05.276Z,41.07
2018-12-22T22:25:41.938Z,33.90
2018-12-22T22:28:16.001Z,32.20
2018-12-22T22:30:49.517Z,25.70
2018-12-22T22:33:25.451Z,26.27
2018-12-22T22:35:58.643Z,29.03
2018-12-22T22:38:28.924Z,32.97
2018-12-22T22:41:09.636Z,37.70
2018-12-22T22:43:47.801Z,38.87
2018-12-22T22:46:28.508Z,44.00
2018-12-22T22:49:01.047Z,38.87
2018-12-22T22:51:33.785Z,44.10
2018-12-22T22:54:04.863Z,41.83
2018-12-22T22:56:35.038Z,49.03
2018-12-22T22:59:08.590Z,44.30
2018-12-22T23:01:42.904Z,39.87
2018-12-22T23:04:19.484Z,42.77
2018-12-22T23:06:49.621Z,44.97
2018-12-22T23:09:23.584Z,47.20
2018-12-22T23:11:57.680Z,43.30
2018-12-22T23:14:33.270Z,46.07
2018-12-22T23:17:06.766Z,47.93
2018-12-22T23:19:38.349Z,47.80
2018-12-22T23:22:08.144Z,55.23
2018-12-22T23:24:41.746Z,47.93
2018-12-22T23:27:15.989Z,45.23
2018-12-22T23:29:46.309Z,49.70
2018-12-22T23:32:19.979Z,52.57
2018-12-22T23:34:53.479Z,51.30
2018-12-22T23:37:26.743Z,48.67
2018-12-22T23:40:00.404Z,52.50
2018-12-22T23:42:33.170Z,46.90
2018-12-22T23:45:10.227Z,49.77
2018-12-22T23:47:41.073Z,43.47
2018-12-22T23:50:11.909Z,44.47
2018-12-22T23:52:42.343Z,47.43
2018-12-22T23:55:16.654Z,51.13
2018-12-22T23:57:50.539Z,61.70
